Time;durP1;ratioP1;P1;durP2;ratioP2;P2;SDS_P1;SDS_P2;PMS_P1;PMS_P2;Temp;Humidity;BMP_temperature;BMP_pressure;BME280_temperature;BME280_humidity;BME280_pressure;Samples;Min_cycle;Max_cycle;Signal;HPM_P1;HPM_P2
2023/04/27 18:02:48;;;;;;;;;9.25;6.50;;;;;;;;5085974;27;13372;-66
2023/04/27 18:05:13;;;;;;;;;7.00;5.00;;;;;;;;5149083;27;11116;-64
2023/04/27 18:07:39;;;;;;;;;9.50;7.50;;;;;;;;5149811;27;10983;-65
2023/04/27 18:10:05;;;;;;;;;14.00;8.50;;;;;;;;5148544;27;8914;-65
2023/04/27 18:12:30;;;;;;;;;9.50;9.00;;;;;;;;5116521;27;8829;-64
2023/04/27 18:14:55;;;;;;;;;13.25;12.25;;;;;;;;5062946;27;8826;-63
2023/04/27 18:17:21;;;;;;;;;8.25;6.50;;;;;;;;5062782;28;8916;-62
2023/04/27 18:19:47;;;;;;;;;9.75;7.00;;;;;;;;5063456;28;8836;-63
2023/04/27 18:22:12;;;;;;;;;5.25;5.25;;;;;;;;5065335;27;8822;-65
2023/04/27 18:24:39;;;;;;;;;9.25;4.00;;;;;;;;5027877;28;10756;-64
2023/04/27 18:27:05;;;;;;;;;3.00;3.00;;;;;;;;5023892;28;9589;-67
2023/04/27 18:29:30;;;;;;;;;3.50;3.25;;;;;;;;5025034;28;10546;-65
2023/04/27 18:31:57;;;;;;;;;4.50;2.25;;;;;;;;5132156;27;8887;-65
2023/04/27 18:34:22;;;;;;;;;5.75;5.75;;;;;;;;5062169;28;9528;-65
2023/04/27 18:36:49;;;;;;;;;5.00;4.50;;;;;;;;5061863;28;10927;-66
2023/04/27 18:39:18;;;;;;;;;3.75;3.50;;;;;;;;5063195;28;8794;-67
2023/04/27 18:41:43;;;;;;;;;8.00;6.00;;;;;;;;5063220;27;11687;-67
2023/04/27 18:44:08;;;;;;;;;16.25;15.00;;;;;;;;5062858;27;10759;-67
2023/04/27 18:46:34;;;;;;;;;15.75;14.00;;;;;;;;5063032;28;9578;-67
2023/04/27 18:49:00;;;;;;;;;5.00;4.00;;;;;;;;5062971;28;8778;-68
2023/04/27 18:51:25;;;;;;;;;3.25;3.25;;;;;;;;5062954;28;8802;-68
2023/04/27 18:53:54;;;;;;;;;5.00;5.00;;;;;;;;5065125;27;8928;-67
2023/04/27 18:56:21;;;;;;;;;5.00;4.75;;;;;;;;5062958;28;8794;-67
2023/04/27 18:58:47;;;;;;;;;5.00;4.00;;;;;;;;5062114;27;10782;-69
2023/04/27 19:01:22;;;;;;;;;4.00;3.00;;;;;;;;5059908;28;10793;-67
2023/04/27 19:03:47;;;;;;;;;4.75;2.75;;;;;;;;5057652;27;11269;-66
2023/04/27 19:06:16;;;;;;;;;4.00;3.25;;;;;;;;5041868;27;10495;-66
2023/04/27 19:08:42;;;;;;;;;6.00;4.00;;;;;;;;5041993;27;8874;-67
2023/04/27 19:11:07;;;;;;;;;3.00;3.00;;;;;;;;5035172;27;10923;-66
2023/04/27 19:13:32;;;;;;;;;3.00;3.00;;;;;;;;5043699;27;8912;-65
2023/04/27 19:15:59;;;;;;;;;3.50;3.25;;;;;;;;5027444;28;8808;-69
2023/04/27 19:18:25;;;;;;;;;18.50;17.25;;;;;;;;5028936;28;8797;-66
2023/04/27 19:20:50;;;;;;;;;5.25;5.25;;;;;;;;5029014;28;11534;-65
2023/04/27 19:23:17;;;;;;;;;7.00;3.00;;;;;;;;5029051;28;8803;-65
2023/04/27 19:25:44;;;;;;;;;3.25;3.25;;;;;;;;5027732;28;8813;-65
2023/04/27 19:28:09;;;;;;;;;3.25;3.25;;;;;;;;5062424;27;10845;-64
2023/04/27 19:30:34;;;;;;;;;7.00;6.00;;;;;;;;5132173;27;10835;-66
2023/04/27 19:33:00;;;;;;;;;5.25;3.50;;;;;;;;5043445;27;8825;-65
2023/04/27 19:35:26;;;;;;;;;9.00;6.75;;;;;;;;5027218;28;8805;-63
2023/04/27 19:37:51;;;;;;;;;13.50;10.75;;;;;;;;5027620;28;9554;-67
2023/04/27 19:40:17;;;;;;;;;12.00;11.50;;;;;;;;5027875;28;9681;-64
2023/04/27 19:42:43;;;;;;;;;6.75;5.50;;;;;;;;5028607;28;8880;-64
2023/04/27 19:45:09;;;;;;;;;9.75;5.75;;;;;;;;5028777;28;8797;-66
2023/04/27 19:47:34;;;;;;;;;5.00;5.00;;;;;;;;5028977;28;8789;-64
2023/04/27 19:50:00;;;;;;;;;5.75;5.25;;;;;;;;5028606;28;11743;-65
2023/04/27 19:52:25;;;;;;;;;9.75;6.50;;;;;;;;5028068;28;8796;-65
2023/04/27 19:54:51;;;;;;;;;7.00;5.00;;;;;;;;5028679;28;8797;-64
2023/04/27 19:57:17;;;;;;;;;5.50;4.00;;;;;;;;5028792;28;8765;-65
2023/04/27 19:59:42;;;;;;;;;13.50;11.25;;;;;;;;5028739;28;10999;-64
2023/04/27 20:02:08;;;;;;;;;11.00;9.25;;;;;;;;5028436;28;8912;-65
2023/04/27 20:04:33;;;;;;;;;54.50;44.25;;;;;;;;5028563;28;8785;-63
2023/04/27 20:07:00;;;;;;;;;18.75;15.00;;;;;;;;5028461;28;8909;-64
2023/04/27 20:09:25;;;;;;;;;11.75;11.50;;;;;;;;5028255;28;8816;-64
2023/04/27 20:11:50;;;;;;;;;15.75;13.25;;;;;;;;5028486;28;11463;-65
2023/04/27 20:14:15;;;;;;;;;13.00;12.00;;;;;;;;5028543;28;8789;-66
2023/04/27 20:16:41;;;;;;;;;9.50;9.25;;;;;;;;5028172;28;8797;-64
2023/04/27 20:19:06;;;;;;;;;15.00;11.75;;;;;;;;5028519;28;8789;-66
2023/04/27 20:21:34;;;;;;;;;13.25;10.00;;;;;;;;5026114;28;8841;-68
2023/04/27 20:24:00;;;;;;;;;11.50;9.75;;;;;;;;5026258;28;8817;-67
2023/04/27 20:26:25;;;;;;;;;9.75;9.75;;;;;;;;5007295;28;11110;-68
2023/04/27 20:28:50;;;;;;;;;10.00;7.00;;;;;;;;5070429;28;8818;-66
2023/04/27 20:31:16;;;;;;;;;7.50;5.75;;;;;;;;5070088;28;8810;-66
2023/04/27 20:33:41;;;;;;;;;6.00;6.00;;;;;;;;5070598;28;8824;-66
2023/04/27 20:36:07;;;;;;;;;8.75;5.50;;;;;;;;5068994;28;8833;-66
2023/04/27 20:38:32;;;;;;;;;19.75;18.00;;;;;;;;5069107;28;9568;-67
2023/04/27 20:40:59;;;;;;;;;27.25;23.25;;;;;;;;5070025;28;8869;-66
2023/04/27 20:43:25;;;;;;;;;27.50;22.75;;;;;;;;5070717;28;8892;-66
2023/04/27 20:45:50;;;;;;;;;17.50;12.00;;;;;;;;5070595;28;11523;-66
2023/04/27 20:48:15;;;;;;;;;13.00;12.00;;;;;;;;5069343;28;8810;-66
2023/04/27 20:50:41;;;;;;;;;10.75;7.50;;;;;;;;5069190;28;8814;-66
2023/04/27 20:53:06;;;;;;;;;5.00;5.00;;;;;;;;5070021;28;8833;-66
2023/04/27 20:55:32;;;;;;;;;8.50;5.50;;;;;;;;5070232;28;9598;-67
2023/04/27 20:57:58;;;;;;;;;10.25;6.25;;;;;;;;5070439;28;8806;-67
2023/04/27 21:00:24;;;;;;;;;12.50;9.75;;;;;;;;5070337;28;11384;-67
2023/04/27 21:02:50;;;;;;;;;10.75;10.25;;;;;;;;5068912;28;8830;-66
2023/04/27 21:05:15;;;;;;;;;13.75;13.50;;;;;;;;5070321;28;8790;-67
2023/04/27 21:07:41;;;;;;;;;10.75;9.75;;;;;;;;5070116;28;8813;-67
2023/04/27 21:10:06;;;;;;;;;14.75;14.75;;;;;;;;5069886;28;8818;-67
2023/04/27 21:12:34;;;;;;;;;9.00;5.25;;;;;;;;5068930;28;8825;-66
2023/04/27 21:14:59;;;;;;;;;10.50;9.75;;;;;;;;5070165;28;8803;-68
2023/04/27 21:17:28;;;;;;;;;12.25;11.00;;;;;;;;5070103;28;11512;-67
2023/04/27 21:19:54;;;;;;;;;16.75;14.25;;;;;;;;5069625;28;8813;-66
2023/04/27 21:22:20;;;;;;;;;18.25;17.75;;;;;;;;5068470;28;11484;-66
2023/04/27 21:24:45;;;;;;;;;12.50;11.00;;;;;;;;5032525;28;11445;-66
2023/04/27 21:27:11;;;;;;;;;13.75;10.00;;;;;;;;5050435;28;8797;-67
2023/04/27 21:29:36;;;;;;;;;20.75;18.75;;;;;;;;5049523;28;8815;-67
2023/04/27 21:32:02;;;;;;;;;13.00;10.25;;;;;;;;5050056;28;9559;-67
2023/04/27 21:34:27;;;;;;;;;11.00;9.50;;;;;;;;5049713;28;8817;-67
2023/04/27 21:36:53;;;;;;;;;8.00;8.00;;;;;;;;5049418;28;9014;-67
2023/04/27 21:39:18;;;;;;;;;10.25;9.75;;;;;;;;5049480;28;8871;-68
2023/04/27 21:41:43;;;;;;;;;8.50;8.50;;;;;;;;5049526;28;8825;-67
2023/04/27 21:44:09;;;;;;;;;7.25;7.25;;;;;;;;5049543;28;8813;-67
2023/04/27 21:46:34;;;;;;;;;10.50;10.00;;;;;;;;5049632;28;8821;-67
2023/04/27 21:49:01;;;;;;;;;11.00;9.00;;;;;;;;5049838;28;8837;-67
2023/04/27 21:51:26;;;;;;;;;13.75;11.50;;;;;;;;5049749;28;8809;-65
2023/04/27 21:53:52;;;;;;;;;10.00;8.00;;;;;;;;5048740;28;11536;-68
2023/04/27 21:56:17;;;;;;;;;10.25;9.75;;;;;;;;5048308;28;8817;-67
2023/04/27 21:58:43;;;;;;;;;10.25;9.75;;;;;;;;5049940;28;8825;-67
2023/04/27 22:01:09;;;;;;;;;9.75;8.75;;;;;;;;5049474;28;8841;-67
2023/04/27 22:03:34;;;;;;;;;5.00;4.75;;;;;;;;5049996;28;8793;-66
2023/04/27 22:05:59;;;;;;;;;8.75;8.00;;;;;;;;5047913;28;11484;-66
2023/04/27 22:08:25;;;;;;;;;10.75;9.75;;;;;;;;5047479;28;8865;-66
2023/04/27 22:10:50;;;;;;;;;6.00;6.00;;;;;;;;5047485;28;8801;-67
2023/04/27 22:13:16;;;;;;;;;7.50;7.50;;;;;;;;5047505;28;8906;-66
